Time;durP1;ratioP1;P1;durP2;ratioP2;P2;SDS_P1;SDS_P2;PMS_P1;PMS_P2;Temp;Humidity;BMP_temperature;BMP_pressure;BME280_temperature;BME280_humidity;BME280_pressure;Samples;Min_cycle;Max_cycle;Signal;HPM_P1;HPM_P2
2024/01/01 00:02:20;;;;;;;206.18;113.57;;;;;;;;;;6224385;28;20061;-74
2024/01/01 00:05:22;;;;;;;194.33;105.67;;;;;;;;;;6237763;28;20053;-74
2024/01/01 00:08:24;;;;;;;192.25;108.20;;;;;;;;;;6236712;28;20534;-74
2024/01/01 00:11:26;;;;;;;200.00;110.07;;;;;;;;;;6224542;28;20050;-74
2024/01/01 00:14:28;;;;;;;210.05;111.10;;;;;;;;;;6226453;28;20131;-74
2024/01/01 00:17:31;;;;;;;199.13;110.60;;;;;;;;;;6227088;28;20058;-74
2024/01/01 00:20:33;;;;;;;210.65;115.15;;;;;;;;;;6224759;28;20387;-73
2024/01/01 00:23:35;;;;;;;189.68;109.07;;;;;;;;;;6226625;28;20104;-83
2024/01/01 00:26:36;;;;;;;163.70;91.03;;;;;;;;;;6225577;28;20050;-82
2024/01/01 00:29:38;;;;;;;150.77;84.90;;;;;;;;;;6226970;28;20127;-83
2024/01/01 00:32:41;;;;;;;137.50;75.88;;;;;;;;;;6227125;28;20058;-81
2024/01/01 00:35:43;;;;;;;125.07;67.88;;;;;;;;;;6227891;28;20054;-83
2024/01/01 00:38:45;;;;;;;117.40;61.10;;;;;;;;;;6226325;28;20061;-83
2024/01/01 00:41:50;;;;;;;104.35;57.25;;;;;;;;;;6227169;28;20048;-82
2024/01/01 00:44:52;;;;;;;110.90;56.22;;;;;;;;;;6228203;28;20065;-83
2024/01/01 00:47:56;;;;;;;100.13;52.28;;;;;;;;;;6229136;28;20053;-82
2024/01/01 00:50:57;;;;;;;64.40;36.00;;;;;;;;;;6230119;28;20058;-83
2024/01/01 00:53:59;;;;;;;90.25;46.97;;;;;;;;;;6231501;28;20058;-83
2024/01/01 00:57:01;;;;;;;82.65;46.33;;;;;;;;;;6232222;28;20050;-83
2024/01/01 01:00:03;;;;;;;85.82;46.63;;;;;;;;;;6230295;28;20068;-83
2024/01/01 01:03:08;;;;;;;86.40;46.28;;;;;;;;;;6260732;28;20080;-83
2024/01/01 01:06:09;;;;;;;;;;;;;;;;;;6228475;28;20050;-82
2024/01/01 01:09:11;;;;;;;80.32;41.42;;;;;;;;;;6231425;28;19968;-82
2024/01/01 01:12:13;;;;;;;84.97;45.40;;;;;;;;;;6228241;28;20044;-82
2024/01/01 01:15:15;;;;;;;82.25;45.15;;;;;;;;;;6229598;28;20153;-82
2024/01/01 01:18:18;;;;;;;83.97;46.30;;;;;;;;;;6229126;28;20069;-81
2024/01/01 01:21:20;;;;;;;86.80;46.17;;;;;;;;;;6230025;28;20140;-83
2024/01/01 01:24:22;;;;;;;93.55;47.10;;;;;;;;;;6230488;28;20080;-81
2024/01/01 01:27:24;;;;;;;87.65;46.97;;;;;;;;;;6228822;28;20061;-81
2024/01/01 01:30:25;;;;;;;83.68;46.50;;;;;;;;;;6231376;28;20056;-82
2024/01/01 01:33:29;;;;;;;83.47;45.13;;;;;;;;;;6231038;28;20057;-73
2024/01/01 01:36:30;;;;;;;86.03;45.50;;;;;;;;;;6231286;28;20061;-73
2024/01/01 01:39:32;;;;;;;82.93;42.92;;;;;;;;;;6229684;28;20052;-73
2024/01/01 01:42:34;;;;;;;81.63;43.72;;;;;;;;;;6230446;28;20372;-73
2024/01/01 01:45:38;;;;;;;84.45;45.47;;;;;;;;;;6231677;28;20049;-74
2024/01/01 01:48:41;;;;;;;80.45;42.40;;;;;;;;;;6227991;28;20050;-74
2024/01/01 01:51:47;;;;;;;77.03;41.28;;;;;;;;;;6229497;28;20049;-73
2024/01/01 01:54:50;;;;;;;72.43;39.60;;;;;;;;;;6230120;28;20053;-73
2024/01/01 01:57:52;;;;;;;70.80;37.77;;;;;;;;;;6226046;28;20072;-74
2024/01/01 02:00:55;;;;;;;72.95;37.72;;;;;;;;;;6229703;28;20054;-73
2024/01/01 02:03:59;;;;;;;70.88;39.33;;;;;;;;;;6229716;28;20324;-73
2024/01/01 02:07:00;;;;;;;70.95;39.42;;;;;;;;;;6253738;28;20064;-73
2024/01/01 02:10:02;;;;;;;68.22;36.80;;;;;;;;;;6255203;28;20264;-73
2024/01/01 02:13:04;;;;;;;64.93;36.45;;;;;;;;;;6253942;28;20271;-73
2024/01/01 02:16:06;;;;;;;67.03;37.97;;;;;;;;;;6250975;28;20057;-73
2024/01/01 02:19:17;;;;;;;66.50;36.47;;;;;;;;;;6252503;28;20069;-73
2024/01/01 02:22:19;;;;;;;75.70;38.65;;;;;;;;;;6254014;28;20053;-73
2024/01/01 02:25:23;;;;;;;61.50;33.78;;;;;;;;;;6254378;28;20059;-73
2024/01/01 02:28:24;;;;;;;58.22;33.13;;;;;;;;;;6285115;28;20134;-74
2024/01/01 02:31:26;;;;;;;56.05;31.80;;;;;;;;;;6249205;28;20278;-73
2024/01/01 02:34:29;;;;;;;55.05;30.90;;;;;;;;;;6276897;28;20060;-74
2024/01/01 02:37:31;;;;;;;50.78;28.45;;;;;;;;;;6252245;28;20057;-73
2024/01/01 02:40:34;;;;;;;52.45;28.27;;;;;;;;;;6253434;28;20373;-74
2024/01/01 02:43:36;;;;;;;49.20;29.42;;;;;;;;;;6253111;28;20053;-74
2024/01/01 02:46:38;;;;;;;50.00;28.13;;;;;;;;;;6250404;28;20053;-73
2024/01/01 02:49:40;;;;;;;50.05;27.02;;;;;;;;;;6284021;28;20057;-74
2024/01/01 02:52:42;;;;;;;46.70;25.85;;;;;;;;;;6250176;28;20061;-73
2024/01/01 02:55:46;;;;;;;47.63;27.20;;;;;;;;;;6250025;28;20049;-74
2024/01/01 02:58:48;;;;;;;48.63;26.13;;;;;;;;;;6252938;28;20091;-74
2024/01/01 03:01:50;;;;;;;49.13;25.60;;;;;;;;;;6253731;28;20052;-72
2024/01/01 03:04:52;;;;;;;46.60;26.17;;;;;;;;;;6254302;28;20060;-74
2024/01/01 03:07:54;;;;;;;42.45;24.25;;;;;;;;;;6252944;28;20045;-73
2024/01/01 03:10:57;;;;;;;43.75;25.58;;;;;;;;;;6253081;28;20073;-74
2024/01/01 03:13:59;;;;;;;43.50;24.08;;;;;;;;;;6254128;28;20068;-74
2024/01/01 03:17:00;;;;;;;44.25;23.80;;;;;;;;;;6252422;28;20065;-73
2024/01/01 03:20:04;;;;;;;41.65;24.15;;;;;;;;;;6251126;28;20057;-74
2024/01/01 03:23:06;;;;;;;43.03;25.00;;;;;;;;;;6251145;28;20060;-74
2024/01/01 03:26:09;;;;;;;41.88;24.30;;;;;;;;;;6253904;28;20057;-73
2024/01/01 03:29:11;;;;;;;47.67;25.93;;;;;;;;;;6247546;28;20065;-73
2024/01/01 03:32:13;;;;;;;43.33;25.10;;;;;;;;;;6250426;28;20057;-74
2024/01/01 03:35:15;;;;;;;39.58;23.20;;;;;;;;;;6252238;28;20057;-73
2024/01/01 03:38:17;;;;;;;43.95;23.83;;;;;;;;;;6251886;28;20053;-74
2024/01/01 03:41:24;;;;;;;43.00;24.60;;;;;;;;;;6250231;28;20045;-74
2024/01/01 03:44:25;;;;;;;42.30;23.98;;;;;;;;;;6252257;28;20080;-72
2024/01/01 03:47:28;;;;;;;41.75;22.98;;;;;;;;;;6249891;28;20049;-74
2024/01/01 03:50:30;;;;;;;47.65;24.13;;;;;;;;;;6251359;28;20050;-74
2024/01/01 03:53:32;;;;;;;42.95;22.63;;;;;;;;;;6284281;28;20057;-73
2024/01/01 03:56:35;;;;;;;41.20;22.90;;;;;;;;;;6248613;28;20057;-74
2024/01/01 03:59:37;;;;;;;38.10;20.90;;;;;;;;;;6251730;28;20053;-74
2024/01/01 04:02:40;;;;;;;39.88;21.02;;;;;;;;;;6251456;28;20037;-74
2024/01/01 04:05:41;;;;;;;37.20;20.13;;;;;;;;;;6270060;28;20103;-73
2024/01/01 04:08:43;;;;;;;41.00;21.15;;;;;;;;;;6254983;28;20046;-74
2024/01/01 04:11:47;;;;;;;36.13;20.88;;;;;;;;;;6252786;28;20053;-73
2024/01/01 04:14:49;;;;;;;35.20;19.20;;;;;;;;;;6253124;28;20379;-74
2024/01/01 04:17:50;;;;;;;38.75;20.27;;;;;;;;;;6251410;28;20072;-74
2024/01/01 04:20:53;;;;;;;36.92;19.42;;;;;;;;;;6252655;28;20053;-73
2024/01/01 04:23:57;;;;;;;37.42;19.90;;;;;;;;;;6257122;28;20049;-74
2024/01/01 04:27:02;;;;;;;37.63;19.55;;;;;;;;;;6255583;28;20061;-74
2024/01/01 04:30:04;;;;;;;;;;;;;;;;;;6256138;28;20049;-74
2024/01/01 04:33:06;;;;;;;35.83;17.83;;;;;;;;;;6270099;28;19928;-74
2024/01/01 04:36:08;;;;;;;38.15;18.85;;;;;;;;;;6256477;28;20060;-74
2024/01/01 04:39:10;;;;;;;34.00;17.45;;;;;;;;;;6239457;28;20243;-73
2024/01/01 04:42:14;;;;;;;36.75;18.23;;;;;;;;;;6240115;28;20091;-74
2024/01/01 04:45:16;;;;;;;37.13;18.70;;;;;;;;;;6254188;28;20045;-74
2024/01/01 04:48:18;;;;;;;41.83;19.63;;;;;;;;;;6255037;28;20363;-74
2024/01/01 04:51:20;;;;;;;41.28;18.20;;;;;;;;;;6254039;28;20120;-74
2024/01/01 04:54:22;;;;;;;40.22;20.30;;;;;;;;;;6257280;28;20049;-74
2024/01/01 04:57:26;;;;;;;41.30;20.73;;;;;;;;;;6257355;28;20057;-74
2024/01/01 05:00:29;;;;;;;37.70;20.67;;;;;;;;;;6256389;28;20053;-74
2024/01/01 05:03:31;;;;;;;43.13;22.58;;;;;;;;;;6255300;28;20057;-74
2024/01/01 05:06:32;;;;;;;43.08;20.80;;;;;;;;;;6255847;28;20347;-74
2024/01/01 05:09:34;;;;;;;46.03;22.48;;;;;;;;;;6252546;28;20053;-73
2024/01/01 05:12:38;;;;;;;47.47;22.98;;;;;;;;;;6253899;28;20041;-74
2024/01/01 05:15:41;;;;;;;42.60;22.00;;;;;;;;;;6287332;28;20073;-74
2024/01/01 05:18:42;;;;;;;43.37;22.50;;;;;;;;;;6253433;28;20172;-74
2024/01/01 05:21:45;;;;;;;48.30;22.50;;;;;;;;;;6253754;28;20049;-73
2024/01/01 05:24:47;;;;;;;46.05;21.50;;;;;;;;;;6255420;28;20235;-74
2024/01/01 05:27:50;;;;;;;39.80;19.42;;;;;;;;;;6253542;28;20053;-74
2024/01/01 05:30:52;;;;;;;39.00;18.70;;;;;;;;;;6254573;28;20356;-74
2024/01/01 05:33:54;;;;;;;39.40;19.95;;;;;;;;;;6253672;28;20041;-74
2024/01/01 05:36:56;;;;;;;39.53;17.38;;;;;;;;;;6253230;28;20057;-74
2024/01/01 05:39:57;;;;;;;41.08;19.02;;;;;;;;;;6230113;28;20104;-74
2024/01/01 05:43:01;;;;;;;38.08;18.05;;;;;;;;;;6255378;28;20220;-73
2024/01/01 05:46:03;;;;;;;39.07;17.77;;;;;;;;;;6254055;28;20069;-74
2024/01/01 05:49:04;;;;;;;34.47;17.23;;;;;;;;;;6255154;28;20472;-74
2024/01/01 05:52:06;;;;;;;38.05;16.73;;;;;;;;;;6256144;28;20057;-74
2024/01/01 05:55:09;;;;;;;36.53;17.58;;;;;;;;;;6253743;28;20378;-75
2024/01/01 05:58:12;;;;;;;36.63;15.55;;;;;;;;;;6253259;28;20562;-74
2024/01/01 06:01:14;;;;;;;34.73;16.13;;;;;;;;;;6255511;28;20120;-74
2024/01/01 06:04:16;;;;;;;32.17;15.80;;;;;;;;;;6253624;28;20259;-74
2024/01/01 06:07:18;;;;;;;29.88;15.10;;;;;;;;;;6253988;28;20057;-75
2024/01/01 06:10:20;;;;;;;30.45;14.45;;;;;;;;;;6252558;28;20046;-76
2024/01/01 06:13:24;;;;;;;28.35;14.20;;;;;;;;;;6254485;28;20628;-81
2024/01/01 06:16:26;;;;;;;;;;;;;;;;;;6253889;28;20118;-82
2024/01/01 06:19:27;;;;;;;26.80;13.48;;;;;;;;;;6236908;28;19932;-82
2024/01/01 06:22:30;;;;;;;31.13;14.48;;;;;;;;;;6254717;28;20056;-83
2024/01/01 06:25:32;;;;;;;36.97;16.30;;;;;;;;;;6254161;28;20045;-82
2024/01/01 06:28:36;;;;;;;33.00;14.98;;;;;;;;;;6252470;28;20427;-82
2024/01/01 06:31:38;;;;;;;31.27;14.65;;;;;;;;;;6253328;28;20572;-81
2024/01/01 06:34:40;;;;;;;29.38;13.75;;;;;;;;;;6255033;28;20053;-82
2024/01/01 06:37:41;;;;;;;29.80;14.50;;;;;;;;;;6254107;28;20056;-82
2024/01/01 06:40:44;;;;;;;30.58;13.80;;;;;;;;;;6254913;28;20053;-82
2024/01/01 06:43:47;;;;;;;28.83;13.63;;;;;;;;;;6252901;28;20052;-83
2024/01/01 06:46:49;;;;;;;30.38;13.32;;;;;;;;;;6251375;28;20056;-82
2024/01/01 06:49:51;;;;;;;32.60;13.88;;;;;;;;;;6252253;28;20045;-82
2024/01/01 06:52:52;;;;;;;30.23;13.95;;;;;;;;;;6252292;28;20228;-83
2024/01/01 06:55:54;;;;;;;27.42;12.73;;;;;;;;;;6253483;28;20394;-84
2024/01/01 06:58:57;;;;;;;25.65;13.05;;;;;;;;;;6254455;28;20060;-82
2024/01/01 07:01:59;;;;;;;24.75;12.93;;;;;;;;;;6253745;28;20355;-81
2024/01/01 07:05:02;;;;;;;26.10;13.18;;;;;;;;;;6255225;28;20056;-82
2024/01/01 07:08:04;;;;;;;30.38;15.52;;;;;;;;;;6250841;28;20049;-82
2024/01/01 07:11:06;;;;;;;28.75;14.38;;;;;;;;;;6251977;28;20138;-82
2024/01/01 07:14:10;;;;;;;28.13;13.13;;;;;;;;;;6254040;28;20049;-81
2024/01/01 07:17:12;;;;;;;26.48;14.00;;;;;;;;;;6253278;28;20084;-81
2024/01/01 07:20:15;;;;;;;30.25;13.40;;;;;;;;;;6251730;28;20052;-80
2024/01/01 07:23:19;;;;;;;28.52;13.65;;;;;;;;;;6253277;28;20063;-73
2024/01/01 07:26:20;;;;;;;29.00;13.68;;;;;;;;;;6250491;28;20347;-73
2024/01/01 07:29:24;;;;;;;26.60;12.57;;;;;;;;;;6252709;28;20049;-74
2024/01/01 07:32:25;;;;;;;26.90;13.80;;;;;;;;;;6250767;28;20252;-74
2024/01/01 07:35:27;;;;;;;23.27;13.07;;;;;;;;;;6252026;28;20053;-73
2024/01/01 07:38:29;;;;;;;33.75;13.95;;;;;;;;;;6283776;28;20059;-74
2024/01/01 07:41:31;;;;;;;26.65;13.45;;;;;;;;;;6251081;28;20052;-72
2024/01/01 07:44:36;;;;;;;25.52;13.70;;;;;;;;;;6251269;28;20104;-73
2024/01/01 07:47:38;;;;;;;25.30;13.13;;;;;;;;;;6250581;28;20359;-74
2024/01/01 07:50:40;;;;;;;25.42;13.05;;;;;;;;;;6235864;28;20053;-73
2024/01/01 07:53:42;;;;;;;22.92;12.77;;;;;;;;;;6284100;28;20060;-73
2024/01/01 07:56:47;;;;;;;22.92;11.23;;;;;;;;;;6246161;28;20263;-74
2024/01/01 07:59:52;;;;;;;23.35;11.93;;;;;;;;;;6250550;28;20061;-73
2024/01/01 08:02:54;;;;;;;24.83;11.40;;;;;;;;;;6251727;28;20112;-73
2024/01/01 08:05:56;;;;;;;21.70;11.55;;;;;;;;;;6282443;28;20380;-73
2024/01/01 08:08:58;;;;;;;22.77;12.55;;;;;;;;;;6281822;28;20099;-73
2024/01/01 08:12:00;;;;;;;19.98;11.18;;;;;;;;;;6247420;28;20198;-73
2024/01/01 08:15:05;;;;;;;23.17;11.45;;;;;;;;;;6249300;28;20129;-74
2024/01/01 08:18:07;;;;;;;18.88;10.77;;;;;;;;;;6251614;28;20058;-73
2024/01/01 08:21:09;;;;;;;19.20;11.18;;;;;;;;;;6249910;28;20091;-74
2024/01/01 08:24:11;;;;;;;19.50;11.32;;;;;;;;;;6248128;28;20049;-74
2024/01/01 08:27:13;;;;;;;17.30;10.73;;;;;;;;;;6251041;28;20045;-74
2024/01/01 08:30:17;;;;;;;18.77;11.50;;;;;;;;;;6251310;28;20041;-73
2024/01/01 08:33:18;;;;;;;;;;;;;;;;;;6253190;28;20057;-74
2024/01/01 08:36:20;;;;;;;18.45;10.52;;;;;;;;;;6249984;28;19941;-74
2024/01/01 08:39:22;;;;;;;18.77;10.50;;;;;;;;;;6252460;28;20049;-74
2024/01/01 08:42:25;;;;;;;18.98;10.52;;;;;;;;;;6250116;28;20080;-74
2024/01/01 08:45:29;;;;;;;18.10;10.85;;;;;;;;;;6250013;28;20103;-74
2024/01/01 08:48:31;;;;;;;17.52;10.50;;;;;;;;;;6249399;28;20083;-74
2024/01/01 08:51:33;;;;;;;17.05;11.02;;;;;;;;;;6249580;28;20381;-74
2024/01/01 08:54:36;;;;;;;16.48;10.10;;;;;;;;;;6249611;28;20057;-74
2024/01/01 08:57:39;;;;;;;15.90;10.00;;;;;;;;;;6250612;28;20052;-74
2024/01/01 09:00:43;;;;;;;19.13;10.32;;;;;;;;;;6246047;28;20058;-74
2024/01/01 09:03:44;;;;;;;17.05;9.98;;;;;;;;;;6250141;28;20140;-73
2024/01/01 09:06:46;;;;;;;15.45;10.02;;;;;;;;;;6253828;28;20103;-73
2024/01/01 09:09:48;;;;;;;14.82;9.35;;;;;;;;;;6255492;28;20055;-74
2024/01/01 09:12:50;;;;;;;17.35;10.85;;;;;;;;;;6255489;28;20052;-73
2024/01/01 09:15:53;;;;;;;16.50;9.75;;;;;;;;;;6252697;28;20061;-73
2024/01/01 09:18:55;;;;;;;13.63;8.85;;;;;;;;;;6253785;28;20061;-73
2024/01/01 09:21:57;;;;;;;14.32;8.48;;;;;;;;;;6251271;28;20065;-73
2024/01/01 09:24:59;;;;;;;13.95;8.60;;;;;;;;;;6229880;28;20046;-73
2024/01/01 09:28:03;;;;;;;14.30;9.45;;;;;;;;;;6255746;28;20057;-73
2024/01/01 09:31:06;;;;;;;13.02;8.27;;;;;;;;;;6255732;28;20080;-74
2024/01/01 09:34:08;;;;;;;12.20;7.40;;;;;;;;;;6231034;28;20053;-73
2024/01/01 09:37:10;;;;;;;11.35;7.28;;;;;;;;;;6236193;28;20818;-74
2024/01/01 09:40:12;;;;;;;11.52;7.07;;;;;;;;;;6259285;28;20130;-73
2024/01/01 09:43:16;;;;;;;10.85;7.07;;;;;;;;;;6227573;28;20096;-74
2024/01/01 09:46:20;;;;;;;9.38;6.30;;;;;;;;;;6230100;28;20545;-75
2024/01/01 09:49:24;;;;;;;9.75;7.30;;;;;;;;;;6230431;28;20125;-74
2024/01/01 09:52:26;;;;;;;13.55;7.22;;;;;;;;;;6230723;28;20099;-74
2024/01/01 09:55:29;;;;;;;10.80;7.47;;;;;;;;;;6228835;28;20060;-74
2024/01/01 09:58:41;;;;;;;12.43;6.93;;;;;;;;;;6227131;28;20584;-74
2024/01/01 10:02:02;;;;;;;10.73;7.22;;;;;;;;;;6223990;28;20601;-74
2024/01/01 10:05:14;;;;;;;12.43;8.13;;;;;;;;;;6227734;28;20065;-74
2024/01/01 10:08:16;;;;;;;11.90;8.10;;;;;;;;;;6229519;28;20061;-74
2024/01/01 10:11:20;;;;;;;16.35;9.45;;;;;;;;;;6229573;28;20050;-74
2024/01/01 10:14:22;;;;;;;13.98;9.73;;;;;;;;;;6230044;28;20065;-73
2024/01/01 10:17:26;;;;;;;15.10;10.35;;;;;;;;;;6228837;28;20058;-74
2024/01/01 10:20:28;;;;;;;14.88;10.38;;;;;;;;;;6230351;28;20125;-74
2024/01/01 10:23:30;;;;;;;14.38;10.23;;;;;;;;;;6229429;28;20042;-73
2024/01/01 10:26:39;;;;;;;16.38;10.10;;;;;;;;;;6258721;28;20328;-74
2024/01/01 10:29:41;;;;;;;14.77;10.63;;;;;;;;;;6241799;28;20057;-73
2024/01/01 10:32:46;;;;;;;14.02;9.80;;;;;;;;;;6240660;28;20057;-74
2024/01/01 10:35:48;;;;;;;14.00;9.85;;;;;;;;;;6227986;28;20368;-74
2024/01/01 10:38:50;;;;;;;14.43;9.25;;;;;;;;;;6228634;28;20076;-74
2024/01/01 10:41:52;;;;;;;14.15;9.95;;;;;;;;;;6242811;28;20255;-74
2024/01/01 10:44:55;;;;;;;14.75;10.10;;;;;;;;;;6237521;28;20054;-73
2024/01/01 10:48:00;;;;;;;14.60;10.32;;;;;;;;;;6211149;28;20104;-74
2024/01/01 10:51:30;;;;;;;16.35;10.07;;;;;;;;;;6226238;28;20113;-74
2024/01/01 10:55:02;;;;;;;13.10;9.25;;;;;;;;;;6228392;28;20050;-80
2024/01/01 10:58:13;;;;;;;14.32;9.57;;;;;;;;;;6223613;28;20084;-79
2024/01/01 11:01:16;;;;;;;14.20;8.65;;;;;;;;;;6248606;28;20287;-79
2024/01/01 11:04:22;;;;;;;12.27;8.75;;;;;;;;;;6227849;28;20159;-79
2024/01/01 11:07:56;;;;;;;12.13;7.60;;;;;;;;;;6229069;28;20058;-79
2024/01/01 11:10:57;;;;;;;11.13;6.93;;;;;;;;;;6227441;28;20057;-79
2024/01/01 11:14:00;;;;;;;11.68;7.18;;;;;;;;;;6225232;28;20153;-79
2024/01/01 11:17:04;;;;;;;11.30;7.20;;;;;;;;;;6227654;28;20385;-79
2024/01/01 11:20:10;;;;;;;11.00;6.40;;;;;;;;;;6229308;28;20069;-80
2024/01/01 11:23:39;;;;;;;12.38;6.63;;;;;;;;;;6229079;28;20072;-78
2024/01/01 11:26:41;;;;;;;12.40;7.63;;;;;;;;;;6228062;28;20099;-77
2024/01/01 11:29:43;;;;;;;12.38;8.02;;;;;;;;;;6226979;28;20087;-79
2024/01/01 11:32:44;;;;;;;12.10;7.13;;;;;;;;;;6228400;28;20108;-79
2024/01/01 11:35:48;;;;;;;10.88;7.05;;;;;;;;;;6229540;28;20307;-79
2024/01/01 11:38:51;;;;;;;12.47;7.63;;;;;;;;;;6226002;28;20177;-79
2024/01/01 11:41:53;;;;;;;11.65;7.68;;;;;;;;;;6227531;28;20184;-80
2024/01/01 11:45:06;;;;;;;13.57;7.45;;;;;;;;;;6227707;28;20065;-79
2024/01/01 11:48:09;;;;;;;13.05;7.50;;;;;;;;;;6227701;28;20123;-79
2024/01/01 11:51:13;;;;;;;11.13;6.70;;;;;;;;;;6226577;28;20064;-80
2024/01/01 11:54:15;;;;;;;11.00;7.47;;;;;;;;;;6224938;28;20046;-80
2024/01/01 11:57:17;;;;;;;10.32;7.13;;;;;;;;;;6227220;28;20053;-80
2024/01/01 12:00:20;;;;;;;12.70;7.18;;;;;;;;;;6226369;28;20057;-80
2024/01/01 12:03:22;;;;;;;9.88;6.55;;;;;;;;;;6227310;28;20115;-74
2024/01/01 12:06:26;;;;;;;9.18;6.50;;;;;;;;;;6228470;28;20050;-74
2024/01/01 12:09:27;;;;;;;10.05;6.15;;;;;;;;;;6227418;28;20060;-73
2024/01/01 12:12:29;;;;;;;10.93;6.35;;;;;;;;;;6250686;28;20046;-73
2024/01/01 12:15:32;;;;;;;8.93;6.20;;;;;;;;;;6227642;28;20295;-73
2024/01/01 12:18:34;;;;;;;9.15;6.60;;;;;;;;;;6226173;28;20062;-72
2024/01/01 12:21:40;;;;;;;9.23;6.40;;;;;;;;;;6228279;28;20418;-74
2024/01/01 12:24:43;;;;;;;8.68;6.13;;;;;;;;;;6227271;28;20056;-74
2024/01/01 12:27:46;;;;;;;11.57;6.90;;;;;;;;;;6257012;28;20127;-74
2024/01/01 12:30:47;;;;;;;9.40;6.63;;;;;;;;;;6226779;28;20055;-73
2024/01/01 12:33:52;;;;;;;9.93;6.85;;;;;;;;;;6225430;28;20054;-73
2024/01/01 12:36:58;;;;;;;11.45;7.70;;;;;;;;;;6226816;28;20061;-74
2024/01/01 12:40:00;;;;;;;12.88;8.32;;;;;;;;;;6258366;28;20062;-74
2024/01/01 12:43:02;;;;;;;13.40;9.02;;;;;;;;;;6255895;28;20108;-74
2024/01/01 12:46:05;;;;;;;14.32;9.10;;;;;;;;;;6230016;28;20054;-74
2024/01/01 12:49:06;;;;;;;13.23;9.45;;;;;;;;;;6262893;28;20159;-73
2024/01/01 12:52:10;;;;;;;12.40;8.52;;;;;;;;;;6230874;28;20057;-73
2024/01/01 12:55:12;;;;;;;13.32;8.05;;;;;;;;;;6230873;28;20057;-74
2024/01/01 12:58:13;;;;;;;12.05;8.30;;;;;;;;;;6230219;28;20383;-74
2024/01/01 13:01:16;;;;;;;12.57;8.82;;;;;;;;;;6231622;28;20049;-74
2024/01/01 13:04:17;;;;;;;14.00;8.65;;;;;;;;;;6229869;28;20061;-73
2024/01/01 13:07:21;;;;;;;13.27;9.05;;;;;;;;;;6228853;28;20061;-75
2024/01/01 13:10:23;;;;;;;13.82;9.60;;;;;;;;;;6229420;28;20073;-74
2024/01/01 13:13:25;;;;;;;13.13;9.65;;;;;;;;;;6229603;28;20050;-74
2024/01/01 13:16:27;;;;;;;15.68;10.50;;;;;;;;;;6231029;28;20348;-74
2024/01/01 13:19:29;;;;;;;14.98;10.07;;;;;;;;;;6230016;28;20114;-74
2024/01/01 13:22:32;;;;;;;13.60;9.40;;;;;;;;;;6230068;28;20084;-74
2024/01/01 13:25:34;;;;;;;14.73;9.25;;;;;;;;;;6227412;28;20056;-73
2024/01/01 13:28:37;;;;;;;16.13;10.35;;;;;;;;;;6232020;28;20046;-76
2024/01/01 13:31:39;;;;;;;15.70;10.15;;;;;;;;;;6231893;28;20046;-76
2024/01/01 13:34:41;;;;;;;13.15;9.00;;;;;;;;;;6228882;28;20116;-77
2024/01/01 13:37:44;;;;;;;15.80;10.43;;;;;;;;;;6229459;28;20042;-75
2024/01/01 13:40:46;;;;;;;14.43;8.77;;;;;;;;;;6231040;28;20591;-75
2024/01/01 13:43:48;;;;;;;12.43;7.95;;;;;;;;;;6229178;28;20049;-77
2024/01/01 13:46:50;;;;;;;10.25;7.13;;;;;;;;;;6230156;28;20061;-75
2024/01/01 13:49:52;;;;;;;11.88;7.72;;;;;;;;;;6260348;28;20062;-75
2024/01/01 13:52:57;;;;;;;10.52;6.82;;;;;;;;;;6230084;28;20053;-74
2024/01/01 13:56:01;;;;;;;10.15;6.70;;;;;;;;;;6237834;28;20362;-75
2024/01/01 13:59:04;;;;;;;9.98;6.68;;;;;;;;;;6242745;28;20068;-75
2024/01/01 14:02:07;;;;;;;11.30;7.55;;;;;;;;;;6230811;28;20064;-75
2024/01/01 14:05:09;;;;;;;12.03;7.43;;;;;;;;;;6262327;28;20077;-75
2024/01/01 14:08:12;;;;;;;12.40;7.82;;;;;;;;;;6229036;28;20522;-74
2024/01/01 14:11:15;;;;;;;13.77;8.15;;;;;;;;;;6230936;28;20058;-73
2024/01/01 14:14:17;;;;;;;11.57;7.75;;;;;;;;;;6227633;28;20103;-74
2024/01/01 14:17:20;;;;;;;12.35;8.10;;;;;;;;;;6230374;28;20058;-74
2024/01/01 14:20:22;;;;;;;12.30;7.60;;;;;;;;;;6228520;28;20057;-75
2024/01/01 14:23:25;;;;;;;11.88;7.93;;;;;;;;;;6227137;28;20352;-74
2024/01/01 14:26:27;;;;;;;15.35;8.13;;;;;;;;;;6228441;28;20057;-74
2024/01/01 14:29:30;;;;;;;10.98;7.55;;;;;;;;;;6244035;28;20049;-74
2024/01/01 14:32:32;;;;;;;11.20;8.33;;;;;;;;;;6229452;28;20367;-75
2024/01/01 14:35:34;;;;;;;12.98;7.93;;;;;;;;;;6226004;28;20461;-73
2024/01/01 14:38:38;;;;;;;16.13;9.95;;;;;;;;;;6228815;28;20053;-74
2024/01/01 14:41:41;;;;;;;14.27;9.60;;;;;;;;;;6228078;28;20084;-74
2024/01/01 14:44:43;;;;;;;13.38;9.38;;;;;;;;;;6227137;28;20052;-75
2024/01/01 14:47:45;;;;;;;13.65;9.48;;;;;;;;;;6228705;28;20057;-74
2024/01/01 14:50:48;;;;;;;17.90;11.88;;;;;;;;;;6226657;28;20058;-74
2024/01/01 14:53:52;;;;;;;17.40;12.48;;;;;;;;;;6229105;28;20046;-75
2024/01/01 14:56:54;;;;;;;;;;;;;;;;;;6229472;28;20048;-74
2024/01/01 14:59:56;;;;;;;21.25;13.65;;;;;;;;;;6226121;28;19926;-74
2024/01/01 15:02:58;;;;;;;20.17;13.82;;;;;;;;;;6226279;28;20260;-74
2024/01/01 15:06:02;;;;;;;21.38;13.32;;;;;;;;;;6257763;28;20348;-74
2024/01/01 15:09:06;;;;;;;22.77;14.48;;;;;;;;;;6226564;28;20079;-75
2024/01/01 15:12:08;;;;;;;22.38;15.57;;;;;;;;;;6246002;28;20113;-75
2024/01/01 15:15:13;;;;;;;24.63;16.92;;;;;;;;;;6251913;28;20236;-74
2024/01/01 15:18:14;;;;;;;;;;;;;;;;;;6251157;28;20068;-74
2024/01/01 15:21:16;;;;;;;25.27;17.20;;;;;;;;;;6234013;28;20109;-75
2024/01/01 15:24:21;;;;;;;24.23;16.58;;;;;;;;;;6226924;28;20058;-75
2024/01/01 15:27:23;;;;;;;22.98;16.50;;;;;;;;;;6228597;28;20064;-75
2024/01/01 15:30:25;;;;;;;25.52;15.13;;;;;;;;;;6211851;28;20062;-74
2024/01/01 15:33:27;;;;;;;24.63;16.80;;;;;;;;;;6228316;28;20045;-80
2024/01/01 15:36:29;;;;;;;22.33;15.05;;;;;;;;;;6226356;28;20347;-80
2024/01/01 15:39:33;;;;;;;24.60;15.95;;;;;;;;;;6226359;28;20060;-80
2024/01/01 15:42:35;;;;;;;24.17;15.80;;;;;;;;;;6228895;28;20104;-80
2024/01/01 15:45:39;;;;;;;22.67;15.93;;;;;;;;;;6227522;28;20295;-82
2024/01/01 15:48:41;;;;;;;22.95;15.57;;;;;;;;;;6227921;28;20057;-81
2024/01/01 15:51:43;;;;;;;25.17;16.50;;;;;;;;;;6227694;28;20058;-80
2024/01/01 15:54:46;;;;;;;27.45;16.73;;;;;;;;;;6227933;28;20084;-81
2024/01/01 15:57:49;;;;;;;25.33;16.27;;;;;;;;;;6227670;28;20046;-82
2024/01/01 16:00:51;;;;;;;23.98;16.73;;;;;;;;;;6227661;28;20049;-80
2024/01/01 16:03:54;;;;;;;27.38;16.17;;;;;;;;;;6225658;28;20096;-82
2024/01/01 16:06:56;;;;;;;27.37;15.97;;;;;;;;;;6227192;28;20056;-80
2024/01/01 16:09:59;;;;;;;24.23;15.57;;;;;;;;;;6242398;28;20472;-80
2024/01/01 16:13:01;;;;;;;23.52;16.42;;;;;;;;;;6225764;28;20366;-82
2024/01/01 16:16:03;;;;;;;27.52;17.08;;;;;;;;;;6282709;28;20342;-81
2024/01/01 16:19:05;;;;;;;27.45;16.15;;;;;;;;;;6256457;28;20073;-81
2024/01/01 16:22:09;;;;;;;25.70;16.25;;;;;;;;;;6257054;28;20132;-80
2024/01/01 16:25:15;;;;;;;23.35;15.95;;;;;;;;;;6232171;28;20279;-82
2024/01/01 16:28:17;;;;;;;26.48;16.45;;;;;;;;;;6255041;28;20060;-81
2024/01/01 16:31:22;;;;;;;27.55;16.52;;;;;;;;;;6254046;28;20046;-79
2024/01/01 16:34:24;;;;;;;27.13;16.80;;;;;;;;;;6234336;28;20367;-82
2024/01/01 16:37:26;;;;;;;28.52;16.90;;;;;;;;;;6231314;28;20057;-81
2024/01/01 16:40:30;;;;;;;29.15;17.65;;;;;;;;;;6262744;28;20054;-80
2024/01/01 16:43:32;;;;;;;;;;;;;;;;;;6231589;28;20076;-74
2024/01/01 16:46:33;;;;;;;26.40;15.48;;;;;;;;;;6228339;28;20164;-74
2024/01/01 16:49:35;;;;;;;27.67;15.45;;;;;;;;;;6231429;28;20053;-74
2024/01/01 16:52:37;;;;;;;33.55;17.23;;;;;;;;;;6230615;28;20057;-75
2024/01/01 16:55:41;;;;;;;31.90;16.80;;;;;;;;;;6232846;28;20062;-74
2024/01/01 16:58:43;;;;;;;33.35;16.48;;;;;;;;;;6231070;28;20053;-74
2024/01/01 17:01:46;;;;;;;31.85;16.17;;;;;;;;;;6230926;28;20046;-74
2024/01/01 17:04:48;;;;;;;32.72;16.10;;;;;;;;;;6232093;28;20058;-74
2024/01/01 17:07:50;;;;;;;31.98;16.92;;;;;;;;;;6230912;28;20052;-75
2024/01/01 17:10:53;;;;;;;38.25;17.05;;;;;;;;;;6229827;28;20291;-74
2024/01/01 17:13:55;;;;;;;33.42;15.93;;;;;;;;;;6228148;28;20505;-74
2024/01/01 17:16:58;;;;;;;34.42;17.20;;;;;;;;;;6230521;28;20065;-73
2024/01/01 17:19:59;;;;;;;38.95;17.00;;;;;;;;;;6232680;28;20117;-74
2024/01/01 17:23:01;;;;;;;38.65;17.15;;;;;;;;;;6229360;28;20058;-74
2024/01/01 17:26:05;;;;;;;37.50;16.33;;;;;;;;;;6230683;28;20061;-74
2024/01/01 17:29:07;;;;;;;39.17;16.83;;;;;;;;;;6230566;28;20370;-73
2024/01/01 17:32:09;;;;;;;38.58;17.48;;;;;;;;;;6229205;28;20061;-75
2024/01/01 17:35:11;;;;;;;41.03;17.60;;;;;;;;;;6231010;28;20063;-74
2024/01/01 17:38:13;;;;;;;43.30;18.40;;;;;;;;;;6230986;28;20061;-74
2024/01/01 17:41:17;;;;;;;47.85;19.73;;;;;;;;;;6228725;28;20112;-74
2024/01/01 17:44:19;;;;;;;33.60;15.25;;;;;;;;;;6230419;28;20050;-76
2024/01/01 17:47:21;;;;;;;44.15;20.23;;;;;;;;;;6228282;28;20132;-75
2024/01/01 17:50:23;;;;;;;39.75;18.38;;;;;;;;;;6231052;28;20057;-75
2024/01/01 17:53:25;;;;;;;44.58;18.45;;;;;;;;;;6229616;28;20104;-75